Anatolii Hankevych — UXEG — position and weather

sailwx.info

Track history (hours):
 
Tides and Currents Weather Stations Pressure Air Temp Water Temp Dewpoint Dewpoint Depression Visibility Wind Speed Wind Dir Waves Ship Positions

Anatolii Hankevych

Last reported at 2018-Jan-19 18:41 UTC. Time now 2018-Jan-22 14:18 UTC.
Position N 46°60' E 031°54'.

Length 29 m; draft 1.6 m.

Type: Tug. MMSI: 272158300.

Date/timePositionNaut miles runAvg speedWind from/ knotsBaromVisibWave heightAir tempDewpointWater temp
2018-Jan-19 18:41N 46°60' E 031°54'1 4.0
2018-Jan-19 18:26N 47°00' E 031°56'2 3.7
2018-Jan-19 17:57N 47°01' E 031°58'2 3.5
2018-Jan-19 17:30N 46°59' E 031°58'2 4.1
2018-Jan-19 17:00N 46°58' E 031°56'2 3.8
2018-Jan-19 16:31N 46°56' E 031°56'2 3.1
2018-Jan-19 16:00N 46°56' E 031°58'1 2.1
2018-Jan-19 15:31N 46°57' E 031°59'0 0.1
2018-Jan-19 15:00N 46°57' E 031°59'0 0.0
2018-Jan-19 14:30N 46°57' E 031°59'0 0.0
2018-Jan-19 14:00N 46°57' E 031°59'0 0.5
2018-Jan-19 13:30N 46°57' E 031°59'0 0.1
2018-Jan-19 13:01N 46°57' E 031°59'0 0.4
2018-Jan-19 12:30N 46°57' E 031°59'0 0.2
2018-Jan-19 12:00N 46°57' E 031°59'0 0.4
2018-Jan-19 11:30N 46°56' E 031°59'0 0.6
2018-Jan-19 11:00N 46°57' E 031°59'0 0.9
2018-Jan-19 10:31N 46°56' E 031°59'0 0.7
2018-Jan-19 10:00N 46°57' E 031°59'0 0.8
2018-Jan-19 09:30N 46°57' E 031°59'0 0.0
2018-Jan-19 09:00N 46°57' E 031°59'1 1.1
2018-Jan-19 08:31N 46°57' E 031°59'0 0.2
2018-Jan-19 08:00N 46°56' E 031°59'0 0.4
2018-Jan-19 07:30N 46°57' E 031°59'0 0.4
2018-Jan-19 07:00N 46°56' E 031°59'0 0.0
2018-Jan-19 06:30N 46°56' E 031°59'0 0.0
2018-Jan-19 06:00N 46°56' E 031°59'0 0.0
2018-Jan-19 05:31N 46°56' E 031°59'0 0.0
2018-Jan-19 05:01N 46°56' E 031°59'0 0.0
2018-Jan-19 04:30N 46°56' E 031°59'0 0.0
2018-Jan-19 04:00N 46°56' E 031°59'0 0.0
2018-Jan-19 03:30N 46°56' E 031°59'0 0.0
2018-Jan-19 03:00N 46°56' E 031°59'0 0.0
2018-Jan-19 02:30N 46°56' E 031°59'0 0.0
2018-Jan-19 02:00N 46°56' E 031°59'0 0.0
2018-Jan-19 01:30N 46°56' E 031°59'0 0.0
2018-Jan-19 01:00N 46°56' E 031°59'0 0.0
2018-Jan-19 00:31N 46°56' E 031°59'0 0.0
2018-Jan-19 00:01N 46°56' E 031°59'1 1.1
2018-Jan-18 23:30N 46°57' E 031°60'0 0.6
2018-Jan-18 23:00N 46°56' E 031°59'0 0.7
2018-Jan-18 22:31N 46°57' E 031°59'1 2.3
2018-Jan-18 22:00N 46°56' E 031°58'2 3.1
2018-Jan-18 21:30N 46°56' E 031°56'2 3.1
2018-Jan-18 21:01N 46°58' E 031°55'2 3.7
2018-Jan-18 20:31N 46°59' E 031°58'2 3.2
2018-Jan-18 20:01N 47°00' E 031°59'1 2.5
2018-Jan-18 19:30N 47°01' E 031°57'2 3.0
2018-Jan-18 18:59N 46°60' E 031°55'  
2018-Jan-12 15:00N 46°56' E 031°57'1 2.7
2018-Jan-12 14:30N 46°56' E 031°59'0 0.2
2018-Jan-12 14:00N 46°57' E 031°59'0 0.4
2018-Jan-12 13:31N 46°56' E 031°59'0 1.0
2018-Jan-12 13:00N 46°57' E 031°59'0 0.3
2018-Jan-12 12:30N 46°57' E 031°59'0 0.6
2018-Jan-12 12:00N 46°57' E 031°60'0 0.9
2018-Jan-12 11:31N 46°57' E 031°59'0 0.0
2018-Jan-12 11:01N 46°57' E 031°59'0 0.7
2018-Jan-12 10:30N 46°56' E 031°59'0 0.0
2018-Jan-12 10:00N 46°56' E 031°59'0 0.1
2018-Jan-12 09:31N 46°56' E 031°59'0 0.0
2018-Jan-12 09:01N 46°56' E 031°59'0 0.8
2018-Jan-12 08:31N 46°57' E 031°59'0 0.0
2018-Jan-12 08:00N 46°57' E 031°59'0 0.0
2018-Jan-12 07:30N 46°57' E 031°59'0 0.0
2018-Jan-12 07:00N 46°57' E 031°59'0 0.0
2018-Jan-12 06:31N 46°57' E 031°59'0 0.0
2018-Jan-12 06:00N 46°57' E 031°59'0 0.0
2018-Jan-12 05:31N 46°57' E 031°59'0 0.0
2018-Jan-12 05:00N 46°57' E 031°59'0 0.0
2018-Jan-12 04:30N 46°57' E 031°59'0 0.0
2018-Jan-12 04:00N 46°57' E 031°59'0 0.0
2018-Jan-12 03:30N 46°57' E 031°59'0 0.0
2018-Jan-12 03:01N 46°57' E 031°59'0 0.0
2018-Jan-12 02:31N 46°57' E 031°59'0 0.0
2018-Jan-12 02:00N 46°57' E 031°59'0 0.0
2018-Jan-12 01:30N 46°57' E 031°59'0 0.0
2018-Jan-12 01:00N 46°57' E 031°59'0 0.0
2018-Jan-12 00:30N 46°57' E 031°59'0 0.0
2018-Jan-12 00:01N 46°57' E 031°59'0 0.0
2018-Jan-11 23:30N 46°57' E 031°59'0 0.0
2018-Jan-11 23:01N 46°57' E 031°59'0 0.0
2018-Jan-11 22:31N 46°57' E 031°59'0 0.0
2018-Jan-11 22:00N 46°57' E 031°59'0 0.6
2018-Jan-11 21:30N 46°57' E 031°59'0 0.7
2018-Jan-11 21:00N 46°57' E 031°60'1 1.4
2018-Jan-11 20:30N 46°56' E 031°59'0 0.3
2018-Jan-11 20:01N 46°57' E 031°59'0 0.1
2018-Jan-11 19:30N 46°57' E 031°59'0 0.2
2018-Jan-11 19:01N 46°56' E 031°59'0 0.0
2018-Jan-11 18:30N 46°56' E 031°59'0 0.0
2018-Jan-11 18:00N 46°56' E 031°59'0 0.0
2018-Jan-11 17:31N 46°56' E 031°59'0 0.0
2018-Jan-11 17:00N 46°56' E 031°59'0 0.0
2018-Jan-11 16:30N 46°56' E 031°59'0 0.0
2018-Jan-11 16:00N 46°56' E 031°59'0 0.0
2018-Jan-11 15:30N 46°56' E 031°59'0 0.0
2018-Jan-11 15:01N 46°56' E 031°59'0 0.0
2018-Jan-11 14:30N 46°56' E 031°59'0 0.0
2018-Jan-11 14:00N 46°56' E 031°59'0 0.2
2018-Jan-11 13:30N 46°57' E 031°59'0 0.2
2018-Jan-11 13:00N 46°57' E 031°59'1 1.0
2018-Jan-11 12:30N 46°57' E 031°59'0 0.2
2018-Jan-11 12:00N 46°57' E 031°59'0 0.0
2018-Jan-11 11:30N 46°57' E 031°59'0 0.0
2018-Jan-11 11:01N 46°57' E 031°59'0 0.0
2018-Jan-11 10:30N 46°57' E 031°59'0 0.0
2018-Jan-11 10:01N 46°57' E 031°59'0 0.0
2018-Jan-11 09:30N 46°57' E 031°59'0 0.1
2018-Jan-11 09:00N 46°57' E 031°59'0 0.5
2018-Jan-11 08:30N 46°57' E 031°59'0 0.8
2018-Jan-11 08:00N 46°56' E 031°59'0 0.0
2018-Jan-11 07:30N 46°56' E 031°59'0 0.0
2018-Jan-11 07:01N 46°56' E 031°59'0 0.0
2018-Jan-11 06:30N 46°56' E 031°59'0 0.0
2018-Jan-11 06:01N 46°56' E 031°59'0 0.0
2018-Jan-11 05:31N 46°56' E 031°59'0 0.2
2018-Jan-11 05:00N 46°56' E 031°59'0 0.3
2018-Jan-11 04:30N 46°56' E 031°59'1 1.1
2018-Jan-11 04:01N 46°57' E 031°59'1 1.0
2018-Jan-11 03:31N 46°56' E 031°59'0 0.2
2018-Jan-11 03:00N 46°56' E 031°59'0 0.2
2018-Jan-11 02:31N 46°56' E 031°59'0 0.3
2018-Jan-11 02:01N 46°56' E 031°59'0 0.4
2018-Jan-11 01:30N 46°57' E 031°59'0 0.0
2018-Jan-11 00:59N 46°57' E 031°59'0 0.0
2018-Jan-11 00:30N 46°57' E 031°59'0 0.0
2018-Jan-11 00:00N 46°57' E 031°59'0 0.0
2018-Jan-10 23:31N 46°57' E 031°59'0 0.0
2018-Jan-10 23:00N 46°57' E 031°59'0 0.0
2018-Jan-10 22:30N 46°57' E 031°59'0 0.0
2018-Jan-10 22:01N 46°57' E 031°59'0 0.0
2018-Jan-10 21:31N 46°57' E 031°59'0 0.0
2018-Jan-10 21:00N 46°57' E 031°59'0 0.0
2018-Jan-10 20:29N 46°57' E 031°59'0 0.0
2018-Jan-10 20:00N 46°57' E 031°59'0 0.0
2018-Jan-10 19:30N 46°57' E 031°59'0 0.0
2018-Jan-10 19:01N 46°57' E 031°59'0 0.0
2018-Jan-10 18:30N 46°57' E 031°59'0 0.0
2018-Jan-10 18:00N 46°57' E 031°59'0 0.0
2018-Jan-10 17:30N 46°57' E 031°59'0 0.0
2018-Jan-10 17:00N 46°57' E 031°59'0 0.0
2018-Jan-10 16:30N 46°57' E 031°59'0 0.7
2018-Jan-10 16:01N 46°56' E 031°59'0 0.6
2018-Jan-10 15:31N 46°57' E 031°59'0 0.2
2018-Jan-10 15:00N 46°56' E 031°59'1 1.2
2018-Jan-10 14:31N 46°57' E 031°59'0 0.2
2018-Jan-10 14:00N 46°57' E 031°60'0 0.7
2018-Jan-10 13:30N 46°57' E 031°59'0 0.0
2018-Jan-10 13:00N 46°57' E 031°59'0 0.0
2018-Jan-10 12:30N 46°57' E 031°59'0 0.0
2018-Jan-10 12:01N 46°57' E 031°59'0 0.0
2018-Jan-10 11:30N 46°57' E 031°59'0 0.0
2018-Jan-10 11:00N 46°57' E 031°59'0 0.0
2018-Jan-10 10:30N 46°57' E 031°59'0 0.0
2018-Jan-10 10:00N 46°57' E 031°59'0 0.0
2018-Jan-10 09:31N 46°57' E 031°59'0 0.5
2018-Jan-10 09:01N 46°57' E 031°59'0 0.8
2018-Jan-10 08:31N 46°56' E 031°59'0 0.1
2018-Jan-10 08:01N 46°57' E 031°59'0 0.3
2018-Jan-10 07:30N 46°57' E 031°59'0 0.1
2018-Jan-10 07:00N 46°57' E 031°59'0 0.0
2018-Jan-10 06:31N 46°57' E 031°59'0 0.0
2018-Jan-10 06:00N 46°57' E 031°59'0 0.0
2018-Jan-10 05:30N 46°57' E 031°59'0 0.0
2018-Jan-10 05:00N 46°57' E 031°59'0 0.0
2018-Jan-10 04:30N 46°57' E 031°59'0 0.0
2018-Jan-10 04:01N 46°57' E 031°59'0 0.0
2018-Jan-10 03:30N 46°57' E 031°59'0 0.0
2018-Jan-10 03:00N 46°57' E 031°59'0 0.0
2018-Jan-10 02:31N 46°57' E 031°59'0 0.0
2018-Jan-10 02:00N 46°57' E 031°59'0 0.0
2018-Jan-10 01:30N 46°57' E 031°59'0 0.0
2018-Jan-10 01:01N 46°57' E 031°59'0 0.2
2018-Jan-10 00:31N 46°57' E 031°59'0 0.2
2018-Jan-10 00:01N 46°56' E 031°59'0 0.3
2018-Jan-09 23:31N 46°57' E 031°59'0 0.0
2018-Jan-09 23:00N 46°57' E 031°59'0 0.0
2018-Jan-09 22:31N 46°57' E 031°59'0 0.0
2018-Jan-09 22:01N 46°57' E 031°59'0 0.0
2018-Jan-09 21:30N 46°57' E 031°59'0 0.0
2018-Jan-09 21:00N 46°57' E 031°59'0 0.0
2018-Jan-09 20:30N 46°57' E 031°59'0 0.0
2018-Jan-09 20:00N 46°57' E 031°59'0 0.0
2018-Jan-09 19:31N 46°57' E 031°59'0 0.4
2018-Jan-09 19:01N 46°57' E 031°59'  
Track history (hours):
 
Tides and Currents Weather Stations Pressure Air Temp Water Temp Dewpoint Dewpoint Depression Visibility Wind Speed Wind Dir Waves Ship Positions

Anatolii Hankevych

Last reported at 2018-Jan-19 18:41 UTC. Time now 2018-Jan-22 14:18 UTC.
Position N 46°60' E 031°54'.

Length 29 m; draft 1.6 m.

Type: Tug. MMSI: 272158300.

Date/timePositionNaut miles runAvg speedWind from/ knotsBaromVisibWave heightAir tempDewpointWater temp
2018-Jan-19 18:41N 46°60' E 031°54'1 4.0
2018-Jan-19 18:26N 47°00' E 031°56'2 3.7
2018-Jan-19 17:57N 47°01' E 031°58'2 3.5
2018-Jan-19 17:30N 46°59' E 031°58'2 4.1
2018-Jan-19 17:00N 46°58' E 031°56'2 3.8
2018-Jan-19 16:31N 46°56' E 031°56'2 3.1
2018-Jan-19 16:00N 46°56' E 031°58'1 2.1
2018-Jan-19 15:31N 46°57' E 031°59'0 0.1
2018-Jan-19 15:00N 46°57' E 031°59'0 0.0
2018-Jan-19 14:30N 46°57' E 031°59'0 0.0
2018-Jan-19 14:00N 46°57' E 031°59'0 0.5
2018-Jan-19 13:30N 46°57' E 031°59'0 0.1
2018-Jan-19 13:01N 46°57' E 031°59'0 0.4
2018-Jan-19 12:30N 46°57' E 031°59'0 0.2
2018-Jan-19 12:00N 46°57' E 031°59'0 0.4
2018-Jan-19 11:30N 46°56' E 031°59'0 0.6
2018-Jan-19 11:00N 46°57' E 031°59'0 0.9
2018-Jan-19 10:31N 46°56' E 031°59'0 0.7
2018-Jan-19 10:00N 46°57' E 031°59'0 0.8
2018-Jan-19 09:30N 46°57' E 031°59'0 0.0
2018-Jan-19 09:00N 46°57' E 031°59'1 1.1
2018-Jan-19 08:31N 46°57' E 031°59'0 0.2
2018-Jan-19 08:00N 46°56' E 031°59'0 0.4
2018-Jan-19 07:30N 46°57' E 031°59'0 0.4
2018-Jan-19 07:00N 46°56' E 031°59'0 0.0
2018-Jan-19 06:30N 46°56' E 031°59'0 0.0
2018-Jan-19 06:00N 46°56' E 031°59'0 0.0
2018-Jan-19 05:31N 46°56' E 031°59'0 0.0
2018-Jan-19 05:01N 46°56' E 031°59'0 0.0
2018-Jan-19 04:30N 46°56' E 031°59'0 0.0
2018-Jan-19 04:00N 46°56' E 031°59'0 0.0
2018-Jan-19 03:30N 46°56' E 031°59'0 0.0
2018-Jan-19 03:00N 46°56' E 031°59'0 0.0
2018-Jan-19 02:30N 46°56' E 031°59'0 0.0
2018-Jan-19 02:00N 46°56' E 031°59'0 0.0
2018-Jan-19 01:30N 46°56' E 031°59'0 0.0
2018-Jan-19 01:00N 46°56' E 031°59'0 0.0
2018-Jan-19 00:31N 46°56' E 031°59'0 0.0
2018-Jan-19 00:01N 46°56' E 031°59'1 1.1
2018-Jan-18 23:30N 46°57' E 031°60'0 0.6
2018-Jan-18 23:00N 46°56' E 031°59'0 0.7
2018-Jan-18 22:31N 46°57' E 031°59'1 2.3
2018-Jan-18 22:00N 46°56' E 031°58'2 3.1
2018-Jan-18 21:30N 46°56' E 031°56'2 3.1
2018-Jan-18 21:01N 46°58' E 031°55'2 3.7
2018-Jan-18 20:31N 46°59' E 031°58'2 3.2
2018-Jan-18 20:01N 47°00' E 031°59'1 2.5
2018-Jan-18 19:30N 47°01' E 031°57'2 3.0
2018-Jan-18 18:59N 46°60' E 031°55'  
2018-Jan-12 15:00N 46°56' E 031°57'1 2.7
2018-Jan-12 14:30N 46°56' E 031°59'0 0.2
2018-Jan-12 14:00N 46°57' E 031°59'0 0.4
2018-Jan-12 13:31N 46°56' E 031°59'0 1.0
2018-Jan-12 13:00N 46°57' E 031°59'0 0.3
2018-Jan-12 12:30N 46°57' E 031°59'0 0.6
2018-Jan-12 12:00N 46°57' E 031°60'0 0.9
2018-Jan-12 11:31N 46°57' E 031°59'0 0.0
2018-Jan-12 11:01N 46°57' E 031°59'0 0.7
2018-Jan-12 10:30N 46°56' E 031°59'0 0.0
2018-Jan-12 10:00N 46°56' E 031°59'0 0.1
2018-Jan-12 09:31N 46°56' E 031°59'0 0.0
2018-Jan-12 09:01N 46°56' E 031°59'0 0.8
2018-Jan-12 08:31N 46°57' E 031°59'0 0.0
2018-Jan-12 08:00N 46°57' E 031°59'0 0.0
2018-Jan-12 07:30N 46°57' E 031°59'0 0.0
2018-Jan-12 07:00N 46°57' E 031°59'0 0.0
2018-Jan-12 06:31N 46°57' E 031°59'0 0.0
2018-Jan-12 06:00N 46°57' E 031°59'0 0.0
2018-Jan-12 05:31N 46°57' E 031°59'0 0.0
2018-Jan-12 05:00N 46°57' E 031°59'0 0.0
2018-Jan-12 04:30N 46°57' E 031°59'0 0.0
2018-Jan-12 04:00N 46°57' E 031°59'0 0.0
2018-Jan-12 03:30N 46°57' E 031°59'0 0.0
2018-Jan-12 03:01N 46°57' E 031°59'0 0.0
2018-Jan-12 02:31N 46°57' E 031°59'0 0.0
2018-Jan-12 02:00N 46°57' E 031°59'0 0.0
2018-Jan-12 01:30N 46°57' E 031°59'0 0.0
2018-Jan-12 01:00N 46°57' E 031°59'0 0.0
2018-Jan-12 00:30N 46°57' E 031°59'0 0.0
2018-Jan-12 00:01N 46°57' E 031°59'0 0.0
2018-Jan-11 23:30N 46°57' E 031°59'0 0.0
2018-Jan-11 23:01N 46°57' E 031°59'0 0.0
2018-Jan-11 22:31N 46°57' E 031°59'0 0.0
2018-Jan-11 22:00N 46°57' E 031°59'0 0.6
2018-Jan-11 21:30N 46°57' E 031°59'0 0.7
2018-Jan-11 21:00N 46°57' E 031°60'1 1.4
2018-Jan-11 20:30N 46°56' E 031°59'0 0.3
2018-Jan-11 20:01N 46°57' E 031°59'0 0.1
2018-Jan-11 19:30N 46°57' E 031°59'0 0.2
2018-Jan-11 19:01N 46°56' E 031°59'0 0.0
2018-Jan-11 18:30N 46°56' E 031°59'0 0.0
2018-Jan-11 18:00N 46°56' E 031°59'0 0.0
2018-Jan-11 17:31N 46°56' E 031°59'0 0.0
2018-Jan-11 17:00N 46°56' E 031°59'0 0.0
2018-Jan-11 16:30N 46°56' E 031°59'0 0.0
2018-Jan-11 16:00N 46°56' E 031°59'0 0.0
2018-Jan-11 15:30N 46°56' E 031°59'0 0.0
2018-Jan-11 15:01N 46°56' E 031°59'0 0.0
2018-Jan-11 14:30N 46°56' E 031°59'0 0.0
2018-Jan-11 14:00N 46°56' E 031°59'0 0.2
2018-Jan-11 13:30N 46°57' E 031°59'0 0.2
2018-Jan-11 13:00N 46°57' E 031°59'1 1.0
2018-Jan-11 12:30N 46°57' E 031°59'0 0.2
2018-Jan-11 12:00N 46°57' E 031°59'0 0.0
2018-Jan-11 11:30N 46°57' E 031°59'0 0.0
2018-Jan-11 11:01N 46°57' E 031°59'0 0.0
2018-Jan-11 10:30N 46°57' E 031°59'0 0.0
2018-Jan-11 10:01N 46°57' E 031°59'0 0.0
2018-Jan-11 09:30N 46°57' E 031°59'0 0.1
2018-Jan-11 09:00N 46°57' E 031°59'0 0.5
2018-Jan-11 08:30N 46°57' E 031°59'0 0.8
2018-Jan-11 08:00N 46°56' E 031°59'0 0.0
2018-Jan-11 07:30N 46°56' E 031°59'0 0.0
2018-Jan-11 07:01N 46°56' E 031°59'0 0.0
2018-Jan-11 06:30N 46°56' E 031°59'0 0.0
2018-Jan-11 06:01N 46°56' E 031°59'0 0.0
2018-Jan-11 05:31N 46°56' E 031°59'0 0.2
2018-Jan-11 05:00N 46°56' E 031°59'0 0.3
2018-Jan-11 04:30N 46°56' E 031°59'1 1.1
2018-Jan-11 04:01N 46°57' E 031°59'1 1.0
2018-Jan-11 03:31N 46°56' E 031°59'0 0.2
2018-Jan-11 03:00N 46°56' E 031°59'0 0.2
2018-Jan-11 02:31N 46°56' E 031°59'0 0.3
2018-Jan-11 02:01N 46°56' E 031°59'0 0.4
2018-Jan-11 01:30N 46°57' E 031°59'0 0.0
2018-Jan-11 00:59N 46°57' E 031°59'0 0.0
2018-Jan-11 00:30N 46°57' E 031°59'0 0.0
2018-Jan-11 00:00N 46°57' E 031°59'0 0.0
2018-Jan-10 23:31N 46°57' E 031°59'0 0.0
2018-Jan-10 23:00N 46°57' E 031°59'0 0.0
2018-Jan-10 22:30N 46°57' E 031°59'0 0.0
2018-Jan-10 22:01N 46°57' E 031°59'0 0.0
2018-Jan-10 21:31N 46°57' E 031°59'0 0.0
2018-Jan-10 21:00N 46°57' E 031°59'0 0.0
2018-Jan-10 20:29N 46°57' E 031°59'0 0.0
2018-Jan-10 20:00N 46°57' E 031°59'0 0.0
2018-Jan-10 19:30N 46°57' E 031°59'0 0.0
2018-Jan-10 19:01N 46°57' E 031°59'0 0.0
2018-Jan-10 18:30N 46°57' E 031°59'0 0.0
2018-Jan-10 18:00N 46°57' E 031°59'0 0.0
2018-Jan-10 17:30N 46°57' E 031°59'0 0.0
2018-Jan-10 17:00N 46°57' E 031°59'0 0.0
2018-Jan-10 16:30N 46°57' E 031°59'0 0.7
2018-Jan-10 16:01N 46°56' E 031°59'0 0.6
2018-Jan-10 15:31N 46°57' E 031°59'0 0.2
2018-Jan-10 15:00N 46°56' E 031°59'1 1.2
2018-Jan-10 14:31N 46°57' E 031°59'0 0.2
2018-Jan-10 14:00N 46°57' E 031°60'0 0.7
2018-Jan-10 13:30N 46°57' E 031°59'0 0.0
2018-Jan-10 13:00N 46°57' E 031°59'0 0.0
2018-Jan-10 12:30N 46°57' E 031°59'0 0.0
2018-Jan-10 12:01N 46°57' E 031°59'0 0.0
2018-Jan-10 11:30N 46°57' E 031°59'0 0.0
2018-Jan-10 11:00N 46°57' E 031°59'0 0.0
2018-Jan-10 10:30N 46°57' E 031°59'0 0.0
2018-Jan-10 10:00N 46°57' E 031°59'0 0.0
2018-Jan-10 09:31N 46°57' E 031°59'0 0.5
2018-Jan-10 09:01N 46°57' E 031°59'0 0.8
2018-Jan-10 08:31N 46°56' E 031°59'0 0.1
2018-Jan-10 08:01N 46°57' E 031°59'0 0.3
2018-Jan-10 07:30N 46°57' E 031°59'0 0.1
2018-Jan-10 07:00N 46°57' E 031°59'0 0.0
2018-Jan-10 06:31N 46°57' E 031°59'0 0.0
2018-Jan-10 06:00N 46°57' E 031°59'0 0.0
2018-Jan-10 05:30N 46°57' E 031°59'0 0.0
2018-Jan-10 05:00N 46°57' E 031°59'0 0.0
2018-Jan-10 04:30N 46°57' E 031°59'0 0.0
2018-Jan-10 04:01N 46°57' E 031°59'0 0.0
2018-Jan-10 03:30N 46°57' E 031°59'0 0.0
2018-Jan-10 03:00N 46°57' E 031°59'0 0.0
2018-Jan-10 02:31N 46°57' E 031°59'0 0.0
2018-Jan-10 02:00N 46°57' E 031°59'0 0.0
2018-Jan-10 01:30N 46°57' E 031°59'0 0.0
2018-Jan-10 01:01N 46°57' E 031°59'0 0.2
2018-Jan-10 00:31N 46°57' E 031°59'0 0.2
2018-Jan-10 00:01N 46°56' E 031°59'0 0.3
2018-Jan-09 23:31N 46°57' E 031°59'0 0.0
2018-Jan-09 23:00N 46°57' E 031°59'0 0.0
2018-Jan-09 22:31N 46°57' E 031°59'0 0.0
2018-Jan-09 22:01N 46°57' E 031°59'0 0.0
2018-Jan-09 21:30N 46°57' E 031°59'0 0.0
2018-Jan-09 21:00N 46°57' E 031°59'0 0.0
2018-Jan-09 20:30N 46°57' E 031°59'0 0.0
2018-Jan-09 20:00N 46°57' E 031°59'0 0.0
2018-Jan-09 19:31N 46°57' E 031°59'0 0.4
2018-Jan-09 19:01N 46°57' E 031°59'  

Dump ship's entire track history